sensor_id;sensor_type;location;lat;lon;timestamp;pressure;altitude;pressure_sealevel;temperature;humidity
9077;BME280;4574;51.072;17.174;2023-07-24T00:00:05;63291.66;;;-139.42;100.00
9077;BME280;4574;51.072;17.174;2023-07-24T00:02:34;63291.66;;;-139.42;100.00
9077;BME280;4574;51.072;17.174;2023-07-24T00:05:05;63291.66;;;-139.42;100.00
9077;BME280;4574;51.072;17.174;2023-07-24T00:07:34;63291.66;;;-139.42;100.00
9077;BME280;4574;51.072;17.174;2023-07-24T00:10:02;63291.66;;;-139.42;100.00
9077;BME280;4574;51.072;17.174;2023-07-24T00:12:31;63291.66;;;-139.42;100.00
9077;BME280;4574;51.072;17.174;2023-07-24T00:14:59;63291.66;;;-139.42;100.00
9077;BME280;4574;51.072;17.174;2023-07-24T00:17:28;63291.66;;;-139.42;100.00
9077;BME280;4574;51.072;17.174;2023-07-24T00:19:56;63291.66;;;-139.42;100.00
9077;BME280;4574;51.072;17.174;2023-07-24T00:22:27;63291.66;;;-139.42;100.00
9077;BME280;4574;51.072;17.174;2023-07-24T00:24:58;63291.66;;;-139.42;100.00
9077;BME280;4574;51.072;17.174;2023-07-24T00:27:26;63291.66;;;-139.42;100.00
9077;BME280;4574;51.072;17.174;2023-07-24T00:29:55;63291.66;;;-139.42;100.00
9077;BME280;4574;51.072;17.174;2023-07-24T00:32:23;63291.66;;;-139.42;100.00
9077;BME280;4574;51.072;17.174;2023-07-24T00:34:52;63291.66;;;-139.42;100.00
9077;BME280;4574;51.072;17.174;2023-07-24T00:37:20;63291.66;;;-139.42;100.00
9077;BME280;4574;51.072;17.174;2023-07-24T00:39:50;63291.66;;;-139.42;100.00
9077;BME280;4574;51.072;17.174;2023-07-24T00:42:19;63291.66;;;-139.42;100.00
9077;BME280;4574;51.072;17.174;2023-07-24T00:44:47;63291.66;;;-139.42;100.00
9077;BME280;4574;51.072;17.174;2023-07-24T00:47:16;63291.66;;;-139.42;100.00
9077;BME280;4574;51.072;17.174;2023-07-24T00:49:46;63291.66;;;-139.42;100.00
9077;BME280;4574;51.072;17.174;2023-07-24T00:52:15;63291.66;;;-139.42;100.00
9077;BME280;4574;51.072;17.174;2023-07-24T00:54:45;63291.66;;;-139.42;100.00
9077;BME280;4574;51.072;17.174;2023-07-24T00:57:15;63291.66;;;-139.42;100.00
9077;BME280;4574;51.072;17.174;2023-07-24T00:59:44;63291.66;;;-139.42;100.00
9077;BME280;4574;51.072;17.174;2023-07-24T01:02:13;63291.66;;;-139.42;100.00
9077;BME280;4574;51.072;17.174;2023-07-24T01:04:44;63291.66;;;-139.42;100.00
9077;BME280;4574;51.072;17.174;2023-07-24T01:07:17;63291.66;;;-139.42;100.00
9077;BME280;4574;51.072;17.174;2023-07-24T01:09:46;63291.66;;;-139.42;100.00
9077;BME280;4574;51.072;17.174;2023-07-24T01:12:24;63291.66;;;-139.42;100.00
9077;BME280;4574;51.072;17.174;2023-07-24T01:15:04;63291.66;;;-139.42;100.00
9077;BME280;4574;51.072;17.174;2023-07-24T01:17:39;63291.66;;;-139.42;100.00
9077;BME280;4574;51.072;17.174;2023-07-24T01:20:11;63291.66;;;-139.42;100.00
9077;BME280;4574;51.072;17.174;2023-07-24T01:22:51;63291.66;;;-139.42;100.00
9077;BME280;4574;51.072;17.174;2023-07-24T01:25:31;63291.66;;;-139.42;100.00
9077;BME280;4574;51.072;17.174;2023-07-24T01:28:08;63291.66;;;-139.42;100.00
9077;BME280;4574;51.072;17.174;2023-07-24T01:30:36;63291.66;;;-139.42;100.00
9077;BME280;4574;51.072;17.174;2023-07-24T01:33:04;63291.66;;;-139.42;100.00
9077;BME280;4574;51.072;17.174;2023-07-24T01:35:33;63291.66;;;-139.42;100.00
9077;BME280;4574;51.072;17.174;2023-07-24T01:38:02;63291.66;;;-139.42;100.00
9077;BME280;4574;51.072;17.174;2023-07-24T01:40:33;63291.66;;;-139.42;100.00
9077;BME280;4574;51.072;17.174;2023-07-24T01:43:02;63291.66;;;-139.42;100.00
9077;BME280;4574;51.072;17.174;2023-07-24T01:45:32;63291.66;;;-139.42;100.00
9077;BME280;4574;51.072;17.174;2023-07-24T01:48:00;63291.66;;;-139.42;100.00
9077;BME280;4574;51.072;17.174;2023-07-24T01:50:29;63291.66;;;-139.42;100.00
9077;BME280;4574;51.072;17.174;2023-07-24T01:52:57;63291.66;;;-139.42;100.00
9077;BME280;4574;51.072;17.174;2023-07-24T01:55:26;63291.66;;;-139.42;100.00
9077;BME280;4574;51.072;17.174;2023-07-24T01:57:54;63291.66;;;-139.42;100.00
9077;BME280;4574;51.072;17.174;2023-07-24T02:00:23;99420.38;;;21.55;73.67
9077;BME280;4574;51.072;17.174;2023-07-24T02:02:53;99424.81;;;21.49;73.16
9077;BME280;4574;51.072;17.174;2023-07-24T02:05:21;99417.78;;;21.48;73.43
9077;BME280;4574;51.072;17.174;2023-07-24T02:07:50;99417.91;;;21.42;73.29
9077;BME280;4574;51.072;17.174;2023-07-24T02:10:19;99416.50;;;21.39;73.56
9077;BME280;4574;51.072;17.174;2023-07-24T02:12:47;99414.28;;;21.36;73.60
9077;BME280;4574;51.072;17.174;2023-07-24T02:15:16;99411.59;;;21.36;73.76
9077;BME280;4574;51.072;17.174;2023-07-24T02:17:44;99404.34;;;21.37;73.71
9077;BME280;4574;51.072;17.174;2023-07-24T02:20:14;99403.75;;;21.35;74.02
9077;BME280;4574;51.072;17.174;2023-07-24T02:22:43;99391.47;;;21.27;73.77
9077;BME280;4574;51.072;17.174;2023-07-24T02:25:11;99394.97;;;21.16;75.35
9077;BME280;4574;51.072;17.174;2023-07-24T02:27:40;99392.84;;;21.07;74.66
9077;BME280;4574;51.072;17.174;2023-07-24T02:30:09;99389.56;;;21.05;74.63
9077;BME280;4574;51.072;17.174;2023-07-24T02:32:37;99377.41;;;21.02;74.81
9077;BME280;4574;51.072;17.174;2023-07-24T02:35:07;99373.31;;;21.00;75.51
9077;BME280;4574;51.072;17.174;2023-07-24T02:37:37;99370.50;;;20.83;77.25
9077;BME280;4574;51.072;17.174;2023-07-24T02:40:07;99370.34;;;20.78;76.39
9077;BME280;4574;51.072;17.174;2023-07-24T02:42:36;99361.91;;;20.75;76.07
9077;BME280;4574;51.072;17.174;2023-07-24T02:45:06;99367.66;;;20.78;76.96
9077;BME280;4574;51.072;17.174;2023-07-24T02:47:38;99355.84;;;20.79;76.08
9077;BME280;4574;51.072;17.174;2023-07-24T02:50:07;99365.25;;;20.88;75.89
9077;BME280;4574;51.072;17.174;2023-07-24T02:52:37;99366.28;;;20.87;76.24
9077;BME280;4574;51.072;17.174;2023-07-24T02:55:06;99377.75;;;20.94;76.46
9077;BME280;4574;51.072;17.174;2023-07-24T02:57:34;99377.75;;;20.94;76.24
9077;BME280;4574;51.072;17.174;2023-07-24T03:00:04;99383.72;;;20.96;76.04
9077;BME280;4574;51.072;17.174;2023-07-24T03:02:33;99379.28;;;20.90;76.89
9077;BME280;4574;51.072;17.174;2023-07-24T03:05:01;99361.97;;;20.86;76.46
9077;BME280;4574;51.072;17.174;2023-07-24T03:07:31;99365.34;;;20.82;76.53
9077;BME280;4574;51.072;17.174;2023-07-24T03:10:01;99367.88;;;20.77;76.68
9077;BME280;4574;51.072;17.174;2023-07-24T03:12:30;99363.44;;;20.71;76.39
9077;BME280;4574;51.072;17.174;2023-07-24T03:14:58;99360.53;;;20.72;76.58
9077;BME280;4574;51.072;17.174;2023-07-24T03:17:27;99357.00;;;20.72;76.51
9077;BME280;4574;51.072;17.174;2023-07-24T03:19:55;99358.50;;;20.68;76.77
9077;BME280;4574;51.072;17.174;2023-07-24T03:22:24;99365.19;;;20.65;76.75
9077;BME280;4574;51.072;17.174;2023-07-24T03:24:52;99355.00;;;20.67;76.88
9077;BME280;4574;51.072;17.174;2023-07-24T03:27:22;99359.94;;;20.70;76.65
9077;BME280;4574;51.072;17.174;2023-07-24T03:29:51;99364.25;;;20.71;76.59
9077;BME280;4574;51.072;17.174;2023-07-24T03:32:19;99372.44;;;20.76;76.67
9077;BME280;4574;51.072;17.174;2023-07-24T03:34:48;99369.50;;;20.78;76.51
9077;BME280;4574;51.072;17.174;2023-07-24T03:37:16;99367.41;;;20.80;77.17
9077;BME280;4574;51.072;17.174;2023-07-24T03:39:45;99369.66;;;20.83;76.92
9077;BME280;4574;51.072;17.174;2023-07-24T03:42:26;99372.13;;;20.84;77.31
9077;BME280;4574;51.072;17.174;2023-07-24T03:44:55;99365.13;;;20.83;76.77
9077;BME280;4574;51.072;17.174;2023-07-24T03:47:24;99375.88;;;20.83;77.64
9077;BME280;4574;51.072;17.174;2023-07-24T03:49:52;99367.22;;;20.81;77.46
9077;BME280;4574;51.072;17.174;2023-07-24T03:52:22;99365.13;;;20.83;77.42
9077;BME280;4574;51.072;17.174;2023-07-24T03:54:51;99366.19;;;20.82;77.79
9077;BME280;4574;51.072;17.174;2023-07-24T03:57:19;99359.50;;;20.85;78.29
9077;BME280;4574;51.072;17.174;2023-07-24T03:59:49;99362.78;;;20.87;78.57
9077;BME280;4574;51.072;17.174;2023-07-24T04:02:18;99349.91;;;20.89;78.49
9077;BME280;4574;51.072;17.174;2023-07-24T04:04:48;99343.72;;;20.88;78.29
9077;BME280;4574;51.072;17.174;2023-07-24T04:07:16;99350.72;;;20.89;77.91
9077;BME280;4574;51.072;17.174;2023-07-24T04:09:45;99352.59;;;20.89;78.19
9077;BME280;4574;51.072;17.174;2023-07-24T04:12:13;99349.09;;;20.88;78.41
9077;BME280;4574;51.072;17.174;2023-07-24T04:14:42;99352.84;;;20.87;78.61
9077;BME280;4574;51.072;17.174;2023-07-24T04:17:12;99353.66;;;20.88;78.98
9077;BME280;4574;51.072;17.174;2023-07-24T04:19:41;99350.38;;;20.86;78.79
9077;BME280;4574;51.072;17.174;2023-07-24T04:22:09;99358.81;;;20.89;79.17
9077;BME280;4574;51.072;17.174;2023-07-24T04:24:37;99364.78;;;20.91;80.51
9077;BME280;4574;51.072;17.174;2023-07-24T04:27:06;99365.25;;;20.88;79.95
9077;BME280;4574;51.072;17.174;2023-07-24T04:29:35;99366.03;;;20.89;79.41
9077;BME280;4574;51.072;17.174;2023-07-24T04:32:04;99361.03;;;20.92;79.83
9077;BME280;4574;51.072;17.174;2023-07-24T04:34:34;99383.16;;;20.94;80.03
9077;BME280;4574;51.072;17.174;2023-07-24T04:37:02;99372.84;;;20.91;81.50
9077;BME280;4574;51.072;17.174;2023-07-24T04:39:31;99375.06;;;20.94;81.33
9077;BME280;4574;51.072;17.174;2023-07-24T04:42:00;99365.94;;;20.95;82.18
9077;BME280;4574;51.072;17.174;2023-07-24T04:44:28;99365.09;;;20.95;82.06
9077;BME280;4574;51.072;17.174;2023-07-24T04:46:58;99359.50;;;20.96;82.38
9077;BME280;4574;51.072;17.174;2023-07-24T04:49:29;99371.44;;;21.00;82.71
9077;BME280;4574;51.072;17.174;2023-07-24T04:51:59;99362.78;;;20.98;81.95
9077;BME280;4574;51.072;17.174;2023-07-24T04:54:28;99365.59;;;21.03;82.25
9077;BME280;4574;51.072;17.174;2023-07-24T04:56:57;99362.19;;;21.08;82.24
9077;BME280;4574;51.072;17.174;2023-07-24T04:59:25;99364.41;;;21.11;82.89
9077;BME280;4574;51.072;17.174;2023-07-24T05:01:54;99366.41;;;21.15;82.58
9077;BME280;4574;51.072;17.174;2023-07-24T05:04:23;99366.75;;;21.19;82.92
9077;BME280;4574;51.072;17.174;2023-07-24T05:06:52;99365.00;;;21.24;83.06
9077;BME280;4574;51.072;17.174;2023-07-24T05:09:21;99361.63;;;21.29;83.11
9077;BME280;4574;51.072;17.174;2023-07-24T05:11:50;99356.56;;;21.32;82.88
9077;BME280;4574;51.072;17.174;2023-07-24T05:14:18;99353.19;;;21.37;82.83
9077;BME280;4574;51.072;17.174;2023-07-24T05:16:47;99352.72;;;21.40;82.45
9077;BME280;4574;51.072;17.174;2023-07-24T05:19:16;99346.84;;;21.43;82.37
9077;BME280;4574;51.072;17.174;2023-07-24T05:21:44;99339.69;;;21.48;83.03
9077;BME280;4574;51.072;17.174;2023-07-24T05:24:13;99337.91;;;21.54;82.17
9077;BME280;4574;51.072;17.174;2023-07-24T05:26:43;99331.59;;;21.60;82.75
9077;BME280;4574;51.072;17.174;2023-07-24T05:29:11;99335.69;;;21.62;83.40
9077;BME280;4574;51.072;17.174;2023-07-24T05:31:40;99307.22;;;21.55;83.11
9077;BME280;4574;51.072;17.174;2023-07-24T05:34:09;99321.63;;;21.72;82.70
9077;BME280;4574;51.072;17.174;2023-07-24T05:36:40;99308.06;;;21.67;82.49
9077;BME280;4574;51.072;17.174;2023-07-24T05:39:08;99310.47;;;21.79;82.83
9077;BME280;4574;51.072;17.174;2023-07-24T05:41:37;99308.19;;;21.88;82.43
9077;BME280;4574;51.072;17.174;2023-07-24T05:44:08;99303.81;;;21.98;83.34
9077;BME280;4574;51.072;17.174;2023-07-24T05:46:36;99299.41;;;22.09;82.15
9077;BME280;4574;51.072;17.174;2023-07-24T05:49:05;99297.97;;;22.18;82.75
9077;BME280;4574;51.072;17.174;2023-07-24T05:51:33;99303.56;;;22.28;82.92
9077;BME280;4574;51.072;17.174;2023-07-24T05:54:02;99302.13;;;22.37;82.62
9077;BME280;4574;51.072;17.174;2023-07-24T05:56:31;99287.06;;;22.41;82.28
9077;BME280;4574;51.072;17.174;2023-07-24T05:58:59;99285.13;;;22.53;82.45
9077;BME280;4574;51.072;17.174;2023-07-24T06:01:29;99281.16;;;22.60;82.28
9077;BME280;4574;51.072;17.174;2023-07-24T06:03:58;99285.34;;;22.68;81.93
9077;BME280;4574;51.072;17.174;2023-07-24T06:06:26;99287.88;;;22.74;81.83
9077;BME280;4574;51.072;17.174;2023-07-24T06:08:56;99284.44;;;22.79;81.72
9077;BME280;4574;51.072;17.174;2023-07-24T06:11:24;99285.88;;;22.86;81.70
9077;BME280;4574;51.072;17.174;2023-07-24T06:13:53;99284.31;;;22.90;81.09
9077;BME280;4574;51.072;17.174;2023-07-24T06:16:22;99287.09;;;22.95;80.93
9077;BME280;4574;51.072;17.174;2023-07-24T06:18:52;99280.91;;;22.95;80.30
9077;BME280;4574;51.072;17.174;2023-07-24T06:21:20;99281.81;;;23.00;80.49
9077;BME280;4574;51.072;17.174;2023-07-24T06:23:49;99279.41;;;23.04;79.83
9077;BME280;4574;51.072;17.174;2023-07-24T06:26:17;99268.94;;;23.07;79.65
9077;BME280;4574;51.072;17.174;2023-07-24T06:28:46;99266.56;;;23.11;79.70
9077;BME280;4574;51.072;17.174;2023-07-24T06:31:14;99266.13;;;23.18;79.33
9077;BME280;4574;51.072;17.174;2023-07-24T06:33:43;99271.03;;;23.21;79.27
9077;BME280;4574;51.072;17.174;2023-07-24T06:36:13;99271.59;;;23.23;79.27
9077;BME280;4574;51.072;17.174;2023-07-24T06:38:41;99272.72;;;23.27;79.71
9077;BME280;4574;51.072;17.174;2023-07-24T06:41:11;99284.66;;;23.31;79.29
9077;BME280;4574;51.072;17.174;2023-07-24T06:43:39;99279.25;;;23.31;78.85
9077;BME280;4574;51.072;17.174;2023-07-24T06:46:08;99286.38;;;23.37;77.15
9077;BME280;4574;51.072;17.174;2023-07-24T06:48:36;99282.94;;;23.42;77.35
9077;BME280;4574;51.072;17.174;2023-07-24T06:51:05;99272.97;;;23.47;77.36
9077;BME280;4574;51.072;17.174;2023-07-24T06:53:35;99274.94;;;23.52;76.94
9077;BME280;4574;51.072;17.174;2023-07-24T06:56:04;99279.06;;;23.59;76.71
9077;BME280;4574;51.072;17.174;2023-07-24T06:58:32;99277.00;;;23.66;75.65
9077;BME280;4574;51.072;17.174;2023-07-24T07:01:05;99274.34;;;23.71;74.28
9077;BME280;4574;51.072;17.174;2023-07-24T07:03:34;99261.94;;;23.75;74.15
9077;BME280;4574;51.072;17.174;2023-07-24T07:06:03;99262.34;;;23.84;73.97
9077;BME280;4574;51.072;17.174;2023-07-24T07:08:35;99264.88;;;23.90;73.29
9077;BME280;4574;51.072;17.174;2023-07-24T07:11:03;99266.84;;;24.00;73.47
9077;BME280;4574;51.072;17.174;2023-07-24T07:13:32;99263.94;;;24.06;73.55
9077;BME280;4574;51.072;17.174;2023-07-24T07:16:00;99252.09;;;24.12;73.16
9077;BME280;4574;51.072;17.174;2023-07-24T07:18:29;99259.22;;;24.23;72.38
9077;BME280;4574;51.072;17.174;2023-07-24T07:20:58;99254.97;;;24.32;71.91
9077;BME280;4574;51.072;17.174;2023-07-24T07:23:26;99252.91;;;24.44;71.46
9077;BME280;4574;51.072;17.174;2023-07-24T07:25:56;99258.44;;;24.54;70.98
9077;BME280;4574;51.072;17.174;2023-07-24T07:28:24;99255.53;;;24.65;70.23
9077;BME280;4574;51.072;17.174;2023-07-24T07:30:53;99261.03;;;24.75;69.69
9077;BME280;4574;51.072;17.174;2023-07-24T07:33:22;99261.91;;;24.86;69.24
9077;BME280;4574;51.072;17.174;2023-07-24T07:35:51;99257.09;;;24.98;68.75
9077;BME280;4574;51.072;17.174;2023-07-24T07:38:20;99252.81;;;25.07;68.10
9077;BME280;4574;51.072;17.174;2023-07-24T07:40:49;99261.56;;;25.19;67.01
9077;BME280;4574;51.072;17.174;2023-07-24T07:43:19;99248.06;;;25.29;66.91
9077;BME280;4574;51.072;17.174;2023-07-24T07:45:48;99252.75;;;25.43;64.00
9077;BME280;4574;51.072;17.174;2023-07-24T07:48:16;99238.97;;;25.55;62.50
9077;BME280;4574;51.072;17.174;2023-07-24T07:50:44;99227.88;;;25.61;61.18
9077;BME280;4574;51.072;17.174;2023-07-24T07:53:17;99232.78;;;25.74;60.65
9077;BME280;4574;51.072;17.174;2023-07-24T07:55:46;99226.59;;;25.84;59.70
9077;BME280;4574;51.072;17.174;2023-07-24T07:58:14;99219.03;;;25.96;58.67
9077;BME280;4574;51.072;17.174;2023-07-24T08:00:44;99222.00;;;26.04;58.55
9077;BME280;4574;51.072;17.174;2023-07-24T08:03:13;99236.13;;;26.21;57.47
9077;BME280;4574;51.072;17.174;2023-07-24T08:05:42;99249.44;;;26.32;54.84
9077;BME280;4574;51.072;17.174;2023-07-24T08:08:10;99245.63;;;26.33;53.96
9077;BME280;4574;51.072;17.174;2023-07-24T08:10:39;99245.34;;;26.35;54.88
9077;BME280;4574;51.072;17.174;2023-07-24T08:13:08;99247.50;;;26.33;55.71
9077;BME280;4574;51.072;17.174;2023-07-24T08:15:37;99250.53;;;26.36;55.14
9077;BME280;4574;51.072;17.174;2023-07-24T08:18:07;99246.72;;;26.42;55.12
9077;BME280;4574;51.072;17.174;2023-07-24T08:20:36;99238.06;;;26.50;55.99
9077;BME280;4574;51.072;17.174;2023-07-24T08:23:05;99234.78;;;26.68;57.02
9077;BME280;4574;51.072;17.174;2023-07-24T08:25:34;99238.03;;;26.75;56.02
9077;BME280;4574;51.072;17.174;2023-07-24T08:28:02;99235.03;;;26.82;56.07
9077;BME280;4574;51.072;17.174;2023-07-24T08:30:34;99232.03;;;26.83;56.49
9077;BME280;4574;51.072;17.174;2023-07-24T08:33:03;99248.88;;;26.85;53.77
9077;BME280;4574;51.072;17.174;2023-07-24T08:35:33;99247.22;;;26.89;56.01
9077;BME280;4574;51.072;17.174;2023-07-24T08:38:01;99246.41;;;26.99;55.91
9077;BME280;4574;51.072;17.174;2023-07-24T08:40:29;99243.38;;;27.10;55.44
9077;BME280;4574;51.072;17.174;2023-07-24T08:42:58;99233.88;;;27.18;55.56
9077;BME280;4574;51.072;17.174;2023-07-24T08:45:27;99224.84;;;27.37;55.96
9077;BME280;4574;51.072;17.174;2023-07-24T08:47:56;99225.31;;;27.49;52.38
9077;BME280;4574;51.072;17.174;2023-07-24T08:50:27;99233.41;;;27.59;53.25
9077;BME280;4574;51.072;17.174;2023-07-24T08:52:59;99231.25;;;27.56;52.12
9077;BME280;4574;51.072;17.174;2023-07-24T08:55:29;99236.97;;;27.54;52.81
9077;BME280;4574;51.072;17.174;2023-07-24T08:57:58;99234.50;;;27.58;51.48
9077;BME280;4574;51.072;17.174;2023-07-24T09:00:28;99230.69;;;27.64;52.87
9077;BME280;4574;51.072;17.174;2023-07-24T09:02:57;99229.56;;;27.75;51.44
9077;BME280;4574;51.072;17.174;2023-07-24T09:05:25;99223.47;;;27.88;50.69
9077;BME280;4574;51.072;17.174;2023-07-24T09:07:54;99224.47;;;28.02;51.22
9077;BME280;4574;51.072;17.174;2023-07-24T09:10:25;99211.56;;;28.17;51.43
9077;BME280;4574;51.072;17.174;2023-07-24T09:12:55;99211.50;;;28.27;49.34
9077;BME280;4574;51.072;17.174;2023-07-24T09:15:24;99208.47;;;28.34;49.89
9077;BME280;4574;51.072;17.174;2023-07-24T09:17:53;99211.00;;;28.54;50.77
9077;BME280;4574;51.072;17.174;2023-07-24T09:20:22;99195.38;;;28.64;49.33
9077;BME280;4574;51.072;17.174;2023-07-24T09:22:54;99192.81;;;28.73;48.51
9077;BME280;4574;51.072;17.174;2023-07-24T09:25:44;99176.53;;;28.68;48.45
9077;BME280;4574;51.072;17.174;2023-07-24T09:28:14;99191.13;;;28.77;49.68
9077;BME280;4574;51.072;17.174;2023-07-24T09:30:52;99191.59;;;28.83;49.34
9077;BME280;4574;51.072;17.174;2023-07-24T09:33:21;99178.66;;;28.71;48.93
9077;BME280;4574;51.072;17.174;2023-07-24T09:36:00;99185.78;;;28.67;49.69
9077;BME280;4574;51.072;17.174;2023-07-24T09:38:28;99189.16;;;28.59;50.05
9077;BME280;4574;51.072;17.174;2023-07-24T09:41:01;99185.94;;;28.52;50.04
9077;BME280;4574;51.072;17.174;2023-07-24T09:43:30;99184.22;;;28.37;49.87
9077;BME280;4574;51.072;17.174;2023-07-24T09:46:05;99184.25;;;28.32;49.66
9077;BME280;4574;51.072;17.174;2023-07-24T09:48:36;99185.63;;;28.30;50.14
9077;BME280;4574;51.072;17.174;2023-07-24T09:51:25;99198.72;;;28.23;50.00
9077;BME280;4574;51.072;17.174;2023-07-24T09:53:56;99182.38;;;28.23;51.42
9077;BME280;4574;51.072;17.174;2023-07-24T09:56:27;99178.88;;;28.22;51.78
9077;BME280;4574;51.072;17.174;2023-07-24T09:59:14;99173.06;;;28.34;52.89
9077;BME280;4574;51.072;17.174;2023-07-24T10:01:43;99177.72;;;28.57;52.51
9077;BME280;4574;51.072;17.174;2023-07-24T10:04:13;99187.38;;;28.73;50.62
9077;BME280;4574;51.072;17.174;2023-07-24T10:06:44;99187.84;;;28.79;50.31
9077;BME280;4574;51.072;17.174;2023-07-24T10:09:13;99189.97;;;28.82;50.13
9077;BME280;4574;51.072;17.174;2023-07-24T10:11:44;99184.25;;;28.84;49.29
9077;BME280;4574;51.072;17.174;2023-07-24T10:14:12;99185.16;;;28.75;49.97
9077;BME280;4574;51.072;17.174;2023-07-24T10:16:41;99174.72;;;28.58;50.78
9077;BME280;4574;51.072;17.174;2023-07-24T10:19:14;99170.56;;;28.66;50.57
9077;BME280;4574;51.072;17.174;2023-07-24T10:21:46;99174.38;;;28.65;50.96
9077;BME280;4574;51.072;17.174;2023-07-24T10:24:15;99163.25;;;28.61;51.41
9077;BME280;4574;51.072;17.174;2023-07-24T10:27:04;99167.13;;;28.55;50.76
9077;BME280;4574;51.072;17.174;2023-07-24T10:29:36;99182.06;;;28.58;50.76
9077;BME280;4574;51.072;17.174;2023-07-24T10:32:17;99176.94;;;28.56;51.57
9077;BME280;4574;51.072;17.174;2023-07-24T10:34:55;99179.13;;;28.54;52.07
9077;BME280;4574;51.072;17.174;2023-07-24T10:37:34;99180.50;;;28.52;51.94
9077;BME280;4574;51.072;17.174;2023-07-24T10:40:04;99179.75;;;28.46;51.78
9077;BME280;4574;51.072;17.174;2023-07-24T10:42:34;99184.94;;;28.43;52.10
9077;BME280;4574;51.072;17.174;2023-07-24T10:45:07;99176.50;;;28.44;52.83
9077;BME280;4574;51.072;17.174;2023-07-24T10:47:35;99179.47;;;28.48;53.57
9077;BME280;4574;51.072;17.174;2023-07-24T10:50:05;99169.19;;;28.40;53.98
9077;BME280;4574;51.072;17.174;2023-07-24T10:52:34;99156.19;;;28.32;54.38
9077;BME280;4574;51.072;17.174;2023-07-24T10:55:03;99156.50;;;28.30;55.56
9077;BME280;4574;51.072;17.174;2023-07-24T10:57:31;99154.88;;;28.29;55.19
9077;BME280;4574;51.072;17.174;2023-07-24T11:00:01;99141.81;;;28.26;55.49
9077;BME280;4574;51.072;17.174;2023-07-24T11:02:30;99143.56;;;28.12;56.57
9077;BME280;4574;51.072;17.174;2023-07-24T11:04:59;99142.25;;;28.05;57.24
9077;BME280;4574;51.072;17.174;2023-07-24T11:07:32;99141.13;;;28.11;57.45
9077;BME280;4574;51.072;17.174;2023-07-24T11:10:01;99120.69;;;28.13;57.51
9077;BME280;4574;51.072;17.174;2023-07-24T11:12:29;99115.78;;;28.15;57.63
9077;BME280;4574;51.072;17.174;2023-07-24T11:15:00;99119.88;;;28.13;57.51
9077;BME280;4574;51.072;17.174;2023-07-24T11:17:35;99126.50;;;28.02;58.85
9077;BME280;4574;51.072;17.174;2023-07-24T11:20:06;99116.47;;;27.97;58.74
9077;BME280;4574;51.072;17.174;2023-07-24T11:22:35;99106.34;;;28.03;58.90
9077;BME280;4574;51.072;17.174;2023-07-24T11:25:04;99106.22;;;28.18;59.84
9077;BME280;4574;51.072;17.174;2023-07-24T11:27:38;99097.59;;;28.39;60.33
9077;BME280;4574;51.072;17.174;2023-07-24T11:30:10;99103.97;;;28.25;59.46
9077;BME280;4574;51.072;17.174;2023-07-24T11:32:40;99099.16;;;28.45;58.78
9077;BME280;4574;51.072;17.174;2023-07-24T11:35:10;99103.16;;;28.53;58.79
9077;BME280;4574;51.072;17.174;2023-07-24T11:37:39;99107.94;;;28.61;58.07
9077;BME280;4574;51.072;17.174;2023-07-24T11:40:08;99098.34;;;28.68;58.46
9077;BME280;4574;51.072;17.174;2023-07-24T11:42:41;99101.69;;;28.83;57.72
9077;BME280;4574;51.072;17.174;2023-07-24T11:45:12;99107.78;;;28.99;57.30
9077;BME280;4574;51.072;17.174;2023-07-24T11:47:42;99104.59;;;29.15;55.62
9077;BME280;4574;51.072;17.174;2023-07-24T11:50:12;99096.84;;;29.22;54.84
9077;BME280;4574;51.072;17.174;2023-07-24T11:52:42;99091.78;;;29.34;54.97
9077;BME280;4574;51.072;17.174;2023-07-24T11:55:13;99082.38;;;29.45;53.18
9077;BME280;4574;51.072;17.174;2023-07-24T11:57:42;99073.59;;;29.48;54.20
9077;BME280;4574;51.072;17.174;2023-07-24T12:00:22;99069.75;;;29.49;53.34
9077;BME280;4574;51.072;17.174;2023-07-24T12:02:51;99063.09;;;29.55;53.52
9077;BME280;4574;51.072;17.174;2023-07-24T12:05:20;99068.47;;;29.60;52.36
9077;BME280;4574;51.072;17.174;2023-07-24T12:07:49;99064.06;;;29.64;53.36
9077;BME280;4574;51.072;17.174;2023-07-24T12:10:25;99064.56;;;29.66;52.86
9077;BME280;4574;51.072;17.174;2023-07-24T12:12:58;99056.72;;;29.78;52.29
9077;BME280;4574;51.072;17.174;2023-07-24T12:15:28;99049.38;;;29.92;50.88
9077;BME280;4574;51.072;17.174;2023-07-24T12:17:57;99044.94;;;29.96;46.41
9077;BME280;4574;51.072;17.174;2023-07-24T12:20:26;99040.59;;;29.95;47.36
9077;BME280;4574;51.072;17.174;2023-07-24T12:22:55;99051.59;;;29.90;46.14
9077;BME280;4574;51.072;17.174;2023-07-24T12:25:24;99043.22;;;29.87;47.10
9077;BME280;4574;51.072;17.174;2023-07-24T12:27:53;99035.81;;;29.87;47.72
9077;BME280;4574;51.072;17.174;2023-07-24T12:30:21;63291.66;;;-139.42;100.00
9077;BME280;4574;51.072;17.174;2023-07-24T12:32:51;63291.66;;;-139.42;100.00
9077;BME280;4574;51.072;17.174;2023-07-24T12:35:20;63291.66;;;-139.42;100.00
9077;BME280;4574;51.072;17.174;2023-07-24T12:37:49;63291.66;;;-139.42;100.00
9077;BME280;4574;51.072;17.174;2023-07-24T12:40:18;63291.66;;;-139.42;100.00
9077;BME280;4574;51.072;17.174;2023-07-24T12:42:47;63291.66;;;-139.42;100.00
9077;BME280;4574;51.072;17.174;2023-07-24T12:45:15;63291.66;;;-139.42;100.00
9077;BME280;4574;51.072;17.174;2023-07-24T12:47:44;63291.66;;;-139.42;100.00
9077;BME280;4574;51.072;17.174;2023-07-24T12:50:15;63291.66;;;-139.42;100.00
9077;BME280;4574;51.072;17.174;2023-07-24T12:52:44;63291.66;;;-139.42;100.00
9077;BME280;4574;51.072;17.174;2023-07-24T12:55:13;63291.66;;;-139.42;100.00
9077;BME280;4574;51.072;17.174;2023-07-24T12:57:42;63291.66;;;-139.42;100.00
9077;BME280;4574;51.072;17.174;2023-07-24T13:00:12;63291.66;;;-139.42;100.00
9077;BME280;4574;51.072;17.174;2023-07-24T13:02:40;63291.66;;;-139.42;100.00
9077;BME280;4574;51.072;17.174;2023-07-24T13:05:09;63291.66;;;-139.42;100.00
9077;BME280;4574;51.072;17.174;2023-07-24T13:07:39;63291.66;;;-139.42;100.00
9077;BME280;4574;51.072;17.174;2023-07-24T13:10:09;63291.66;;;-139.42;100.00
9077;BME280;4574;51.072;17.174;2023-07-24T13:12:37;63291.66;;;-139.42;100.00
9077;BME280;4574;51.072;17.174;2023-07-24T13:15:07;63291.66;;;-139.42;100.00
9077;BME280;4574;51.072;17.174;2023-07-24T13:17:35;63291.66;;;-139.42;100.00